• Join FlightAware (Why Join?)
  • Login
  • US Flag 
Gobble Gobble! 
04:30AM EST


 

Airport Tracker/Info


-or-


 

Live Flight TrackerFlight Track Log ✈ DAL6115 ✈ 25-Oct-2013 ✈ KJFK - KRIC

Flight Track Log - Related Links

Times and Time Zones

All times are in EDT time to prevent confusion due to time zone crossing. See the DAL6115 flight status page for this flight to view local times or setup timezone preferences in your user account.

Time Position Orientation Groundspeed Altitude Reporting Facility
EDT Latitude Longitude Course Direction KTS MPH feet Rate Location/Type
04:08PM 40.6167 -73.8500 153° Southeast 192 221 3,300  Level New York TRACON
04:09PM 40.5667 -73.8333 166° South 249 287 5,800 2,400 Climbing New York TRACON
04:10PM 40.3426 -74.1340 220° Southwest  Level Estimated
04:10PM 40.5500 -73.7500 105° East 255 293 8,200  Level New York TRACON
04:11PM 40.2703 -74.0426 136° Southeast  Level FlightAware Approximate
04:11PM 40.4747 -73.6386 132° Southeast 278 320 11,300  Level New York Center
04:12PM 40.1978 -74.1335 222° Southwest  Level Estimated
04:12PM 40.4056 -73.5675 142° Southeast 299 344 12,900  Level New York Center
04:13PM 40.1080 -74.0747 153° Southeast  Level FlightAware Approximate
04:13PM 40.3325 -73.4936 142° Southeast 331 381 14,900  Level New York Center
04:14PM 40.2592 -73.4175 142° Southeast 336 387 16,000 720 Climbing New York Center
04:15PM 40.1750 -73.3597 152° Southeast 360 414 16,400 1,080 Climbing New York Center
04:16PM 40.0636 -73.3014 158° South 380 437 18,200 1,200 Climbing New York Center
04:17PM 39.9731 -73.2575 160° South 387 445 18,900 720 Climbing New York Center
04:18PM 39.8642 -73.2725 186° South 382 440 19,700 1,140 Climbing New York Center
04:20PM 39.7194 -73.3497 202° Southwest 377 434 21,900 840 Climbing Washington Center
04:21PM 39.6592 -73.4675 236° Southwest 363 418 22,000  Climbing Washington Center
04:22PM 39.6050 -73.5903 240° Southwest 377 434 22,000  Level Washington Center
04:23PM 39.5486 -73.7158 240° Southwest 402 463 22,000  Level Washington Center
04:24PM 39.4883 -73.8464 239° Southwest 413 475 22,000  Level Washington Center
04:25PM 39.4317 -73.9742 240° Southwest 418 481 22,000  Level Washington Center
04:26PM 39.3558 -74.0803 227° Southwest 418 481 22,000  Level Washington Center
04:27PM 39.2653 -74.1761 219° Southwest 413 475 22,000  Level Washington Center
04:28PM 39.1789 -74.2717 221° Southwest 418 481 22,000  Level Washington Center
04:29PM 39.0925 -74.3667 220° Southwest 418 481 22,000  Level Washington Center
04:30PM 39.0058 -74.4589 220° Southwest 413 475 22,000  Level Washington Center
04:31PM 38.9192 -74.5564 221° Southwest 413 475 22,000  Level Washington Center
04:32PM 38.8322 -74.6456 219° Southwest 413 475 22,000  Level Washington Center
04:33PM 38.7456 -74.7400 220° Southwest 413 475 22,000  Level Washington Center
04:34PM 38.6586 -74.8339 220° Southwest 413 475 22,000  Level Washington Center
04:35PM 38.5758 -74.9225 220° Southwest 407 468 22,000 -180 Level Washington Center
04:36PM 38.4867 -75.0133 219° Southwest 402 463 21,700 -720 Descending Washington Center
04:37PM 38.4014 -75.1042 220° Southwest 402 463 20,700 -1,080 Descending Washington Center
04:38PM 38.3164 -75.1947 220° Southwest 402 463 19,600 -1,020 Descending Washington Center
04:39PM 38.2289 -75.2906 221° Southwest 407 468 18,700 -840 Descending Washington Center
04:40PM 38.1417 -75.3778 218° Southwest 412 474 18,000 -420 Descending Washington Center
04:41PM 38.0583 -75.4653 220° Southwest 399 459 17,900 -600 Descending Washington Center
04:42PM 37.9667 -75.5392 212° Southwest 393 452 16,900 -1,080 Descending Washington Center
04:43PM 37.8875 -75.5969 210° Southwest 385 443 16,100 -900 Descending Washington Center
04:43PM 37.8750 -75.6075 214° Southwest 393 452 16,000 -120 Descending Washington Center
04:44PM 37.8061 -75.6575 210° Southwest 386 444 16,000  Level Washington Center
04:44PM 37.7831 -75.6786 216° Southwest 393 452 16,000  Level Washington Center
04:45PM 37.7100 -75.7283 208° Southwest 382 440 16,000  Level Washington Center
04:45PM 37.6914 -75.7467 218° Southwest 388 447 16,000  Level Washington Center
04:46PM 37.6225 -75.7964 210° Southwest 380 437 16,000  Level Washington Center
04:46PM 37.5994 -75.8147 212° Southwest 388 447 16,000 -540 Level Washington Center
04:47PM 37.5386 -75.8983 227° Southwest 365 420 15,400 -840 Descending Washington Center
04:47PM 37.5325 -75.9061 225° Southwest 378 435 15,200 -1,440 Descending Washington Center
04:48PM 37.4736 -76.0158 236° Southwest 363 418 13,800 -1,380 Descending Washington Center
04:48PM 37.4758 -76.0106 62° Northeast 362 417 13,800 -1,260 Level Washington Center
04:49PM 37.4253 -76.1097 237° Southwest 357 411 12,700 -1,200 Descending Washington Center
04:49PM 37.4253 -76.1175 270° West 367 422 12,600 -1,260 Descending Washington Center
04:50PM 37.4144 -76.2219 263° West 282 325 11,300 -1,320 Descending Washington Center
04:50PM 37.4125 -76.2167 115° Southeast 325 374 11,300 -1,860 Level Washington Center
04:51PM 37.4056 -76.3056 264° West 269 310 9,700 -1,800 Descending Washington Center
04:51PM 37.4036 -76.3108 245° Southwest 294 338 9,600 -1,260 Descending Washington Center
04:52PM 37.3947 -76.4022 263° West 276 318 8,200 -660 Descending Washington Center
04:53PM 37.3833 -76.5667 265° West 265 305 8,000 -120 Descending Potomac TRACON
04:55PM 37.3667 -76.6667 258° West 269 310 8,000  Level Potomac TRACON
04:55PM 37.3667 -76.7500 270° West 277 319 8,000  Level Potomac TRACON
04:56PM 37.3500 -76.8333 256° West 270 311 8,000 -360 Level Potomac TRACON
04:57PM 37.3500 -76.9333 270° West 265 305 7,300 -1,200 Descending Potomac TRACON
04:59PM 37.3500 -77.0333 270° West 247 284 5,500 -1,620 Descending Potomac TRACON
05:00PM 37.3667 -77.1167 284° West 235 270 3,900 -1,620 Descending Potomac TRACON
05:00PM 37.3833 -77.1833 287° West 239 275 2,500 -960 Descending Potomac TRACON
05:02PM 37.4000 -77.2667 284° West 207 238 2,000 -240 Descending Potomac TRACON
05:03PM 37.4000 -77.3333 270° West 184 212 2,000 -360 Level Potomac TRACON
05:04PM 37.4500 -77.3500 345° North 136 157 1,300 -720 Descending Potomac TRACON
05:05PM 37.4833 -77.3333 22° Northeast 129 148 600 -660 Descending Potomac TRACON